createdAt,value
2022-08-14T00:02:37.181Z,25.57
2022-08-14T00:08:01.483Z,25.53
2022-08-14T00:13:28.613Z,25.60
2022-08-14T00:19:06.591Z,25.46
2022-08-14T00:24:39.205Z,25.44
2022-08-14T00:30:02.300Z,25.35
2022-08-14T00:35:42.224Z,25.11
2022-08-14T00:41:11.719Z,25.13
2022-08-14T00:46:35.419Z,24.83
2022-08-14T00:51:59.846Z,24.35
2022-08-14T00:57:25.525Z,24.96
2022-08-14T01:02:48.529Z,24.61
2022-08-14T01:08:52.450Z,24.38
2022-08-14T01:14:25.514Z,24.91
2022-08-14T01:20:05.885Z,25.08
2022-08-14T01:25:52.847Z,24.69
2022-08-14T01:31:18.428Z,24.43
2022-08-14T01:36:41.754Z,24.91
2022-08-14T01:42:08.824Z,25.02
2022-08-14T01:47:33.557Z,24.71
2022-08-14T01:53:01.287Z,24.41
2022-08-14T01:58:29.711Z,24.36
2022-08-14T02:03:57.147Z,24.63
2022-08-14T02:09:22.565Z,24.43
2022-08-14T02:14:59.024Z,24.72
2022-08-14T02:20:23.846Z,24.55
2022-08-14T02:25:54.551Z,24.56
2022-08-14T02:31:19.811Z,24.30
2022-08-14T02:37:03.866Z,24.38
2022-08-14T02:42:47.168Z,24.59
2022-08-14T02:49:02.561Z,24.71
2022-08-14T02:54:01.499Z,24.45
2022-08-14T02:59:29.560Z,24.39
2022-08-14T03:04:58.246Z,24.32
2022-08-14T03:10:27.763Z,23.17
2022-08-14T03:15:57.981Z,24.02
2022-08-14T03:21:25.050Z,24.12
2022-08-14T03:26:49.714Z,23.65
2022-08-14T03:32:20.253Z,23.95
2022-08-14T03:39:10.667Z,23.71
2022-08-14T03:43:37.999Z,23.19
2022-08-14T03:49:05.294Z,24.12
2022-08-14T03:54:30.962Z,24.14
2022-08-14T03:59:53.984Z,24.12
2022-08-14T04:05:17.120Z,23.73
2022-08-14T04:10:41.609Z,22.95
2022-08-14T04:16:06.789Z,22.82
2022-08-14T04:21:39.706Z,22.07
2022-08-14T04:27:17.693Z,22.88
2022-08-14T04:33:12.152Z,23.19
2022-08-14T04:38:41.724Z,23.38
2022-08-14T04:44:06.461Z,23.32
2022-08-14T04:49:46.519Z,23.59
2022-08-14T04:55:20.495Z,23.13
2022-08-14T05:00:45.263Z,23.50
2022-08-14T05:06:37.818Z,23.84
2022-08-14T05:11:55.776Z,23.72
2022-08-14T05:17:54.017Z,23.64
2022-08-14T05:23:28.766Z,23.53
2022-08-14T05:28:51.736Z,23.30
2022-08-14T05:34:16.209Z,23.00
2022-08-14T05:39:41.200Z,23.20
2022-08-14T05:45:11.148Z,22.95
2022-08-14T05:50:38.220Z,23.32
2022-08-14T05:56:01.231Z,23.63
2022-08-14T06:01:24.443Z,23.80
2022-08-14T06:06:55.678Z,24.30
2022-08-14T06:12:31.399Z,24.42
2022-08-14T06:18:04.256Z,24.45
2022-08-14T06:23:28.613Z,24.46
2022-08-14T06:28:52.819Z,24.60
2022-08-14T06:35:10.161Z,24.65
2022-08-14T06:40:01.550Z,24.74
2022-08-14T06:45:28.415Z,24.75
2022-08-14T06:50:53.751Z,24.87
2022-08-14T07:03:29.963Z,25.05
2022-08-14T07:08:54.564Z,25.17
2022-08-14T07:14:19.137Z,25.03
2022-08-14T07:19:42.169Z,25.33
2022-08-14T07:25:05.742Z,25.02
2022-08-14T07:30:33.820Z,25.52
2022-08-14T07:35:59.844Z,25.51
2022-08-14T07:41:23.056Z,25.29
2022-08-14T07:46:47.334Z,25.83
2022-08-14T07:52:10.621Z,25.89
2022-08-14T07:57:36.362Z,25.85
2022-08-14T08:03:02.968Z,26.11
2022-08-14T08:08:27.725Z,26.22
2022-08-14T08:13:58.464Z,26.31
2022-08-14T08:19:23.908Z,26.26
2022-08-14T08:24:47.355Z,26.11
2022-08-14T08:30:14.775Z,26.56
2022-08-14T08:35:46.963Z,26.65
2022-08-14T08:41:16.769Z,26.72
2022-08-14T08:46:42.662Z,26.84
2022-08-14T08:52:15.073Z,26.88
2022-08-14T08:57:38.648Z,27.01
2022-08-14T09:03:05.325Z,27.02
2022-08-14T09:08:32.783Z,27.04
2022-08-14T09:13:56.418Z,27.16
2022-08-14T09:19:22.078Z,26.90
2022-08-14T09:24:49.497Z,27.33
2022-08-14T09:30:31.137Z,27.14
2022-08-14T09:36:12.765Z,27.47
2022-08-14T09:42:20.151Z,27.62
2022-08-14T09:47:49.183Z,27.74
2022-08-14T09:53:19.102Z,27.39
2022-08-14T09:58:46.867Z,27.67
2022-08-14T10:04:32.928Z,27.80
2022-08-14T10:10:02.066Z,27.87
2022-08-14T10:15:29.965Z,27.88
2022-08-14T10:20:57.855Z,27.86
2022-08-14T10:26:28.444Z,27.97
2022-08-14T10:32:00.214Z,28.01
2022-08-14T10:37:28.040Z,28.07
2022-08-14T10:42:51.687Z,27.47
2022-08-14T10:48:24.530Z,27.85
2022-08-14T10:54:16.455Z,28.19
2022-08-14T10:59:55.547Z,28.13
2022-08-14T11:05:20.432Z,28.31
2022-08-14T11:10:46.666Z,28.23
2022-08-14T11:16:09.949Z,28.47
2022-08-14T11:21:35.860Z,28.17
2022-08-14T11:27:05.512Z,28.80
2022-08-14T11:32:29.182Z,28.95
2022-08-14T11:37:57.422Z,29.17
2022-08-14T11:43:29.023Z,29.02
2022-08-14T11:49:04.323Z,29.60
2022-08-14T11:54:35.179Z,29.67
2022-08-14T12:00:04.717Z,29.95
2022-08-14T12:05:34.238Z,30.05
2022-08-14T12:11:00.735Z,30.22
2022-08-14T12:16:25.104Z,30.33
2022-08-14T12:21:52.245Z,30.40
2022-08-14T12:27:18.531Z,30.36
2022-08-14T12:32:48.386Z,29.96
2022-08-14T12:38:19.438Z,30.79
2022-08-14T12:43:53.983Z,30.78
2022-08-14T12:49:22.943Z,30.99
2022-08-14T12:55:06.178Z,30.70
2022-08-14T13:00:32.263Z,30.96
2022-08-14T13:05:59.395Z,30.70
2022-08-14T13:11:31.347Z,31.43
2022-08-14T13:16:58.833Z,31.50
2022-08-14T13:22:32.174Z,31.27
2022-08-14T13:27:59.328Z,31.66
2022-08-14T13:33:25.059Z,31.88
2022-08-14T13:38:51.136Z,31.77
2022-08-14T13:44:15.020Z,31.75
2022-08-14T13:49:57.758Z,31.96
2022-08-14T13:55:23.898Z,31.91
2022-08-14T14:00:54.838Z,31.72
2022-08-14T14:06:21.747Z,31.24
2022-08-14T14:11:45.603Z,31.05
2022-08-14T14:17:12.466Z,31.34
2022-08-14T14:23:02.168Z,31.59
2022-08-14T14:28:31.137Z,32.34
2022-08-14T14:34:07.592Z,32.64
2022-08-14T14:40:54.419Z,32.91
2022-08-14T14:45:32.837Z,32.84
2022-08-14T14:51:01.333Z,32.33
2022-08-14T14:56:50.489Z,32.23
2022-08-14T15:02:22.602Z,31.91
2022-08-14T15:07:48.100Z,31.43
2022-08-14T15:13:12.873Z,31.03
2022-08-14T15:18:39.471Z,30.65
2022-08-14T15:24:06.077Z,30.67
2022-08-14T15:29:43.199Z,30.45
2022-08-14T15:35:07.856Z,30.46
2022-08-14T15:40:31.153Z,30.32
2022-08-14T15:45:56.235Z,29.95
2022-08-14T15:51:24.854Z,30.15
2022-08-14T15:56:58.624Z,30.08
2022-08-14T16:02:27.611Z,30.00
2022-08-14T16:07:51.046Z,29.89
2022-08-14T16:13:17.255Z,29.76
2022-08-14T16:18:59.662Z,29.78
2022-08-14T16:24:27.910Z,29.77
2022-08-14T16:29:51.370Z,29.76
2022-08-14T16:35:16.429Z,29.73
2022-08-14T16:40:43.555Z,29.66
2022-08-14T16:46:07.688Z,29.60
2022-08-14T16:51:34.979Z,29.55
2022-08-14T16:57:16.188Z,29.49
2022-08-14T17:02:43.558Z,29.32
2022-08-14T17:08:32.510Z,29.26
2022-08-14T17:14:01.451Z,29.39
2022-08-14T17:19:25.879Z,29.24
2022-08-14T17:25:03.750Z,29.24
2022-08-14T17:30:31.926Z,29.16
2022-08-14T17:36:21.098Z,28.99
2022-08-14T17:42:03.039Z,28.89
2022-08-14T17:47:27.815Z,26.91
2022-08-14T17:52:57.156Z,28.92
2022-08-14T17:58:24.388Z,28.87
2022-08-14T18:03:53.999Z,28.52
2022-08-14T18:09:25.916Z,28.66
2022-08-14T18:14:53.668Z,28.65
2022-08-14T18:21:41.767Z,28.65
2022-08-14T18:26:04.884Z,28.32
2022-08-14T18:31:43.921Z,28.50
2022-08-14T18:37:21.285Z,28.37
2022-08-14T18:42:48.080Z,28.16
2022-08-14T18:48:33.197Z,28.38
2022-08-14T18:54:32.749Z,28.21
2022-08-14T18:59:57.604Z,28.30
2022-08-14T19:05:56.463Z,28.16
2022-08-14T19:11:50.285Z,27.96
2022-08-14T19:18:14.228Z,27.80
2022-08-14T19:23:42.010Z,27.15
2022-08-14T19:29:24.610Z,27.41
2022-08-14T19:34:52.952Z,27.25
2022-08-14T19:40:31.771Z,27.54
2022-08-14T19:46:01.389Z,27.13
2022-08-14T19:51:32.690Z,26.84
2022-08-14T19:57:01.363Z,27.03
2022-08-14T20:02:30.315Z,26.94
2022-08-14T20:08:06.184Z,27.13
2022-08-14T20:13:32.592Z,26.93
2022-08-14T20:18:58.804Z,26.71
2022-08-14T20:24:31.639Z,26.50
2022-08-14T20:30:33.551Z,26.83
2022-08-14T20:36:00.005Z,26.59
2022-08-14T20:41:25.365Z,26.42
2022-08-14T20:46:49.924Z,26.30
2022-08-14T20:52:20.137Z,26.47
2022-08-14T20:57:44.333Z,26.71
2022-08-14T21:03:57.145Z,26.68
2022-08-14T21:10:03.161Z,26.66
2022-08-14T21:15:13.777Z,26.54
2022-08-14T21:20:38.537Z,25.53
2022-08-14T21:26:03.685Z,26.20
2022-08-14T21:31:30.335Z,25.28
2022-08-14T21:36:55.682Z,26.14
2022-08-14T21:42:18.969Z,26.07
2022-08-14T21:47:43.329Z,26.30
2022-08-14T21:53:08.775Z,24.90
2022-08-14T21:58:53.054Z,24.67
2022-08-14T22:04:33.800Z,25.35
2022-08-14T22:09:59.267Z,26.07
2022-08-14T22:15:30.094Z,24.86
2022-08-14T22:20:56.502Z,25.26
2022-08-14T22:26:21.902Z,25.70
2022-08-14T22:31:50.341Z,25.61
2022-08-14T22:37:21.433Z,25.02
2022-08-14T22:42:59.904Z,25.90
2022-08-14T22:48:26.495Z,25.54
2022-08-14T22:53:54.759Z,25.79
2022-08-14T22:59:20.379Z,25.58
2022-08-14T23:05:03.336Z,24.52
2022-08-14T23:10:31.824Z,25.03
2022-08-14T23:15:59.035Z,25.00
2022-08-14T23:21:24.470Z,25.48
2022-08-14T23:26:50.652Z,25.73
2022-08-14T23:32:19.157Z,25.03
2022-08-14T23:37:43.860Z,25.33
2022-08-14T23:43:11.209Z,25.32
2022-08-14T23:48:39.147Z,25.52
2022-08-14T23:54:48.097Z,24.73
2022-08-14T23:59:54.268Z,25.23
